createdAt,value
2018-06-11T08:01:39.944Z,63.40
2018-06-11T08:04:08.483Z,59.60
2018-06-11T08:06:37.086Z,59.50
2018-06-11T08:09:07.757Z,59.50
2018-06-11T08:11:36.619Z,59.40
2018-06-11T08:14:05.202Z,58.60
2018-06-11T08:16:33.726Z,58.70
2018-06-11T08:19:02.573Z,58.10
2018-06-11T08:21:31.118Z,57.70
2018-06-11T08:23:59.605Z,56.90
2018-06-11T08:26:28.097Z,56.70
2018-06-11T08:28:57.019Z,57.50
2018-06-11T08:31:25.575Z,58.20
2018-06-11T08:33:54.082Z,57.80
2018-06-11T08:36:22.680Z,57.80
2018-06-11T08:38:51.749Z,57.80
2018-06-11T08:41:20.323Z,57.90
2018-06-11T08:46:17.079Z,57.70
2018-06-11T08:48:45.624Z,56.90
2018-06-11T08:51:14.196Z,57.10
2018-06-11T08:53:42.740Z,57.30
2018-06-11T08:56:11.604Z,56.40
2018-06-11T08:58:40.427Z,56.20
2018-06-11T09:01:09.031Z,56.50
2018-06-11T09:03:37.597Z,56.10
2018-06-11T09:06:06.163Z,56.00
2018-06-11T09:08:34.739Z,55.50
2018-06-11T09:11:03.952Z,55.50
2018-06-11T09:13:32.537Z,56.00
2018-06-11T09:16:01.183Z,55.70
2018-06-11T09:18:30.103Z,56.60
2018-06-11T09:20:59.124Z,55.80
2018-06-11T09:23:27.953Z,55.40
2018-06-11T09:25:56.519Z,55.70
2018-06-11T09:28:25.741Z,55.20
2018-06-11T09:30:54.371Z,55.60
2018-06-11T09:33:23.135Z,55.20
2018-06-11T09:35:51.852Z,55.00
2018-06-11T09:38:20.995Z,55.40
2018-06-11T09:40:49.608Z,54.80
2018-06-11T09:43:18.247Z,54.10
2018-06-11T09:47:16.250Z,53.40
2018-06-11T09:49:46.725Z,53.10
2018-06-11T09:52:15.688Z,53.30
2018-06-11T09:54:44.283Z,53.50
2018-06-11T09:57:12.832Z,54.30
2018-06-11T09:59:41.511Z,54.90
2018-06-11T10:02:10.075Z,55.20
2018-06-11T10:04:38.669Z,55.20
2018-06-11T10:07:07.236Z,55.30
2018-06-11T10:09:35.859Z,55.10
2018-06-11T10:12:04.464Z,55.00
2018-06-11T10:14:33.306Z,54.90
2018-06-11T10:17:02.031Z,54.70
2018-06-11T10:19:30.686Z,54.90
2018-06-11T10:21:59.243Z,54.20
2018-06-11T10:24:27.924Z,54.70
2018-06-11T10:26:56.804Z,54.60
2018-06-11T10:29:25.393Z,54.70
2018-06-11T10:31:53.966Z,54.50
2018-06-11T10:34:22.585Z,54.20
2018-06-11T10:36:51.414Z,54.50
2018-06-11T10:39:19.962Z,54.70
2018-06-11T10:41:48.528Z,54.70
2018-06-11T10:44:17.324Z,54.80
2018-06-11T10:46:46.204Z,54.50
2018-06-11T10:49:14.783Z,54.20
2018-06-11T10:51:43.504Z,54.20
2018-06-11T10:54:12.119Z,53.70
2018-06-11T10:56:40.763Z,54.00
2018-06-11T10:59:09.298Z,54.50
2018-06-11T11:01:37.857Z,54.60
2018-06-11T11:04:07.636Z,54.90
2018-06-11T11:06:37.386Z,55.00
2018-06-11T11:09:07.823Z,55.10
2018-06-11T11:11:37.453Z,55.20
2018-06-11T11:14:07.219Z,55.20
2018-06-11T11:16:37.387Z,55.30
2018-06-11T11:19:06.514Z,54.70
2018-06-11T11:21:36.548Z,54.30
2018-06-11T11:24:06.414Z,54.20
2018-06-11T11:26:35.425Z,54.70
2018-06-11T11:29:04.118Z,54.50
2018-06-11T11:31:34.084Z,54.10
2018-06-11T11:34:03.982Z,53.70
2018-06-11T11:36:33.594Z,53.60
2018-06-11T11:39:02.464Z,53.70
2018-06-11T11:41:32.131Z,53.80
2018-06-11T11:44:00.883Z,54.30
2018-06-11T11:46:30.439Z,54.00
2018-06-11T11:48:59.122Z,53.50
2018-06-11T11:51:28.525Z,53.30
2018-06-11T11:53:57.496Z,53.80
2018-06-11T11:56:26.228Z,53.90
2018-06-11T11:58:56.486Z,54.10
2018-06-11T12:01:25.190Z,53.10
2018-06-11T12:03:53.769Z,52.90
2018-06-11T12:06:22.268Z,52.60
2018-06-11T12:08:51.173Z,53.30
2018-06-11T12:11:19.756Z,53.10
2018-06-11T12:13:48.318Z,52.60
2018-06-11T12:16:16.892Z,52.30
2018-06-11T12:18:45.893Z,51.80
2018-06-11T12:21:14.461Z,51.80
2018-06-11T12:23:43.143Z,52.80
2018-06-11T12:26:11.894Z,52.40
2018-06-11T12:28:40.436Z,51.90
2018-06-11T12:31:09.301Z,51.80
2018-06-11T12:33:37.852Z,51.80
2018-06-11T12:36:06.579Z,51.80
2018-06-11T12:38:35.167Z,51.80
2018-06-11T12:41:04.111Z,51.30
2018-06-11T12:43:32.652Z,51.30
2018-06-11T12:46:01.338Z,51.50
2018-06-11T12:48:29.952Z,51.40
2018-06-11T12:50:58.596Z,51.10
2018-06-11T12:53:27.152Z,51.00
2018-06-11T12:55:55.779Z,51.50
2018-06-11T13:02:44.800Z,50.70
2018-06-11T13:05:14.739Z,50.90
2018-06-11T13:07:44.807Z,51.00
2018-06-11T13:10:13.912Z,50.40
